createdAt,value
2022-11-13T00:04:43.242Z,6.80
2022-11-13T00:10:25.286Z,6.00
2022-11-13T00:16:12.950Z,5.90
2022-11-13T00:21:54.850Z,6.40
2022-11-13T00:27:36.692Z,5.83
2022-11-13T00:33:37.929Z,5.97
2022-11-13T00:39:21.453Z,6.30
2022-11-13T00:45:03.174Z,5.77
2022-11-13T00:50:47.054Z,6.57
2022-11-13T00:56:28.879Z,4.53
2022-11-13T01:02:12.893Z,5.17
2022-11-13T01:07:55.991Z,5.40
2022-11-13T01:13:37.950Z,5.67
2022-11-13T01:19:19.927Z,5.63
2022-11-13T01:25:03.470Z,5.13
2022-11-13T01:30:45.166Z,6.17
2022-11-13T01:36:28.178Z,5.70
2022-11-13T01:42:11.368Z,6.13
2022-11-13T01:47:52.978Z,6.27
2022-11-13T01:53:35.071Z,5.87
2022-11-13T01:59:20.968Z,6.17
2022-11-13T02:05:02.633Z,7.00
2022-11-13T02:10:44.685Z,5.97
2022-11-13T02:16:28.480Z,6.57
2022-11-13T02:22:14.319Z,7.73
2022-11-13T02:27:57.526Z,6.50
2022-11-13T02:33:39.153Z,7.63
2022-11-13T02:39:20.797Z,7.63
2022-11-13T02:45:04.144Z,7.20
2022-11-13T02:50:46.337Z,6.53
2022-11-13T02:56:28.306Z,7.53
2022-11-13T03:02:11.497Z,7.17
2022-11-13T03:07:53.531Z,7.00
2022-11-13T03:13:35.371Z,8.20
2022-11-13T03:19:18.502Z,8.93
2022-11-13T03:25:00.413Z,9.40
2022-11-13T03:30:42.003Z,10.80
2022-11-13T03:36:24.929Z,10.87
2022-11-13T03:42:06.562Z,11.00
2022-11-13T03:47:49.812Z,10.07
2022-11-13T03:53:32.883Z,9.77
2022-11-13T03:59:14.632Z,10.47
2022-11-13T04:04:56.477Z,9.87
2022-11-13T04:10:39.793Z,9.27
2022-11-13T04:16:21.366Z,10.13
2022-11-13T04:22:02.882Z,9.00
2022-11-13T04:27:45.994Z,10.13
2022-11-13T04:33:27.592Z,10.13
2022-11-13T04:39:09.379Z,10.37
2022-11-13T04:44:52.374Z,10.27
2022-11-13T04:50:34.250Z,10.70
2022-11-13T04:56:16.083Z,10.10
2022-11-13T05:01:59.403Z,10.13
2022-11-13T05:07:42.687Z,10.73
2022-11-13T05:13:24.799Z,10.13
2022-11-13T05:19:08.054Z,9.40
2022-11-13T05:24:49.764Z,8.43
2022-11-13T05:30:31.565Z,10.10
2022-11-13T05:36:16.035Z,9.00
2022-11-13T05:41:57.421Z,9.70
2022-11-13T05:47:39.284Z,8.97
2022-11-13T05:53:22.394Z,9.33
2022-11-13T05:59:04.975Z,10.60
2022-11-13T06:04:46.437Z,8.53
2022-11-13T06:10:29.564Z,8.13
2022-11-13T06:16:12.178Z,9.43
2022-11-13T06:21:53.706Z,9.07
2022-11-13T06:27:36.800Z,9.50
2022-11-13T06:33:18.585Z,8.83
2022-11-13T06:39:00.775Z,9.60
2022-11-13T06:44:43.934Z,10.13
2022-11-13T06:50:25.441Z,9.47
2022-11-13T06:56:07.713Z,11.73
2022-11-13T07:01:52.787Z,9.33
2022-11-13T07:07:34.439Z,10.53
2022-11-13T07:13:16.233Z,10.83
2022-11-13T07:18:59.396Z,12.70
2022-11-13T07:24:42.676Z,12.17
2022-11-13T07:30:24.298Z,13.50
2022-11-13T07:36:09.097Z,13.60
2022-11-13T07:41:50.981Z,13.97
2022-11-13T07:47:32.762Z,13.17
2022-11-13T07:53:16.025Z,11.97
2022-11-13T07:58:57.528Z,11.73
2022-11-13T08:04:39.266Z,13.90
2022-11-13T08:10:22.875Z,12.90
2022-11-13T08:16:05.288Z,12.27
2022-11-13T08:21:46.937Z,13.80
2022-11-13T08:27:30.125Z,12.73
2022-11-13T08:33:11.914Z,13.77
2022-11-13T08:38:53.871Z,13.73
2022-11-13T08:44:37.151Z,11.93
2022-11-13T08:50:19.452Z,12.87
2022-11-13T08:56:01.897Z,13.10
2022-11-13T09:01:45.244Z,11.20
2022-11-13T09:07:27.711Z,11.17
2022-11-13T09:13:11.810Z,12.67
2022-11-13T09:18:55.047Z,10.97
2022-11-13T09:24:36.883Z,10.63
2022-11-13T09:30:18.904Z,8.57
2022-11-13T09:36:02.029Z,9.07
2022-11-13T09:41:50.532Z,7.73
2022-11-13T09:47:34.927Z,6.23
2022-11-13T09:53:18.212Z,6.07
2022-11-13T09:59:07.455Z,7.17
2022-11-13T10:04:57.811Z,7.40
2022-11-13T10:10:55.190Z,6.93
2022-11-13T10:16:40.610Z,6.97
2022-11-13T10:22:33.230Z,7.20
2022-11-13T10:28:49.010Z,7.37
2022-11-13T10:34:20.987Z,6.20
2022-11-13T10:40:02.544Z,6.63
2022-11-13T10:45:56.229Z,7.07
2022-11-13T10:51:39.704Z,6.67
2022-11-13T10:57:30.937Z,6.60
2022-11-13T11:03:19.002Z,4.90
2022-11-13T11:09:08.440Z,6.73
2022-11-13T11:15:11.481Z,6.43
2022-11-13T11:20:56.594Z,5.53
2022-11-13T11:26:40.892Z,5.57
2022-11-13T11:32:28.279Z,6.77
2022-11-13T11:38:16.577Z,8.07
2022-11-13T11:44:02.975Z,5.13
2022-11-13T11:49:45.471Z,4.93
2022-11-13T11:55:38.645Z,6.73
2022-11-13T12:01:27.833Z,4.97
2022-11-13T12:07:19.987Z,6.23
2022-11-13T12:13:13.479Z,5.93
2022-11-13T12:19:00.392Z,5.50
2022-11-13T12:24:59.556Z,5.10
2022-11-13T12:30:49.297Z,5.67
2022-11-13T12:36:31.015Z,5.53
2022-11-13T12:42:19.021Z,5.27
2022-11-13T12:48:10.438Z,5.27
2022-11-13T12:53:54.047Z,6.00
2022-11-13T12:59:38.302Z,6.70
2022-11-13T13:05:31.906Z,4.93
2022-11-13T13:11:18.387Z,5.50
2022-11-13T13:17:07.859Z,5.33
2022-11-13T13:22:58.302Z,5.03
2022-11-13T13:28:41.958Z,5.73
2022-11-13T13:34:35.906Z,6.10
2022-11-13T13:40:30.274Z,4.90
2022-11-13T13:46:15.637Z,5.33
2022-11-13T13:51:58.688Z,6.13
2022-11-13T13:57:43.136Z,5.10
2022-11-13T14:03:26.156Z,5.70
2022-11-13T14:09:09.500Z,6.07
2022-11-13T14:14:52.818Z,4.87
2022-11-13T14:20:42.747Z,5.57
2022-11-13T14:26:24.583Z,4.43
2022-11-13T14:32:18.744Z,4.77
2022-11-13T14:38:00.338Z,5.50
2022-11-13T14:43:50.119Z,4.47
2022-11-13T14:49:35.770Z,4.80
2022-11-13T14:55:25.586Z,4.70
2022-11-13T15:01:16.105Z,5.30
2022-11-13T15:07:00.673Z,6.00
2022-11-13T15:12:42.814Z,4.07
2022-11-13T15:18:24.635Z,5.93
2022-11-13T15:24:08.405Z,4.90
2022-11-13T15:29:50.279Z,4.97
2022-11-13T15:35:32.040Z,5.00
2022-11-13T15:41:16.171Z,4.90
2022-11-13T15:46:57.635Z,5.23
2022-11-13T15:52:40.916Z,5.13
2022-11-13T15:58:24.107Z,5.17
2022-11-13T16:04:06.274Z,5.17
2022-11-13T16:09:48.354Z,5.67
2022-11-13T16:15:31.342Z,4.87
2022-11-13T16:21:14.062Z,5.30
2022-11-13T16:26:57.460Z,5.40
2022-11-13T16:32:40.483Z,5.17
2022-11-13T16:38:22.302Z,4.73
2022-11-13T16:44:04.078Z,5.20
2022-11-13T16:49:47.500Z,6.10
2022-11-13T16:55:29.490Z,5.47
2022-11-13T17:01:16.606Z,4.60
2022-11-13T17:07:00.246Z,4.90
2022-11-13T17:12:42.285Z,5.87
2022-11-13T17:18:24.254Z,5.03
2022-11-13T17:24:07.861Z,5.50
2022-11-13T17:29:49.677Z,4.97
2022-11-13T17:35:31.516Z,5.70
2022-11-13T17:41:15.758Z,4.20
2022-11-13T17:46:57.561Z,5.60
2022-11-13T17:52:39.228Z,5.63
2022-11-13T17:58:22.309Z,5.50
2022-11-13T18:04:04.325Z,5.63
2022-11-13T18:09:46.193Z,6.33
2022-11-13T18:15:29.529Z,5.53
2022-11-13T18:21:22.503Z,5.40
2022-11-13T18:27:06.093Z,5.00
2022-11-13T18:32:50.287Z,5.63
2022-11-13T18:38:32.211Z,5.13
2022-11-13T18:44:14.121Z,5.47
2022-11-13T18:49:58.280Z,5.13
2022-11-13T18:55:40.096Z,5.83
2022-11-13T19:01:24.894Z,5.07
2022-11-13T19:07:08.883Z,5.00
2022-11-13T19:12:50.682Z,4.93
2022-11-13T19:18:32.926Z,5.67
2022-11-13T19:24:16.154Z,6.87
2022-11-13T19:29:57.689Z,5.67
2022-11-13T19:35:39.761Z,5.27
2022-11-13T19:41:23.461Z,5.77
2022-11-13T19:47:05.004Z,6.20
2022-11-13T19:52:46.790Z,5.27
2022-11-13T19:58:30.397Z,5.90
2022-11-13T20:04:13.877Z,5.00
2022-11-13T20:09:55.799Z,5.80
2022-11-13T20:15:39.020Z,5.80
2022-11-13T20:21:24.540Z,5.73
2022-11-13T20:27:06.271Z,5.80
2022-11-13T20:32:49.630Z,5.90
2022-11-13T20:38:33.192Z,5.73
2022-11-13T20:44:15.821Z,6.13
2022-11-13T20:49:58.901Z,5.40
2022-11-13T20:55:40.423Z,4.70
2022-11-13T21:01:24.572Z,6.57
2022-11-13T21:07:08.083Z,6.57
2022-11-13T21:12:49.765Z,6.60
2022-11-13T21:18:31.936Z,5.67
2022-11-13T21:24:15.568Z,5.30
2022-11-13T21:29:58.204Z,5.77
2022-11-13T21:35:40.154Z,6.13
2022-11-13T21:41:25.650Z,6.17
2022-11-13T21:47:07.459Z,5.87
2022-11-13T21:52:49.285Z,5.37
2022-11-13T21:58:33.181Z,5.97
2022-11-13T22:04:14.796Z,6.73
2022-11-13T22:09:56.554Z,7.33
2022-11-13T22:15:39.784Z,5.07
2022-11-13T22:21:21.788Z,7.50
2022-11-13T22:27:03.795Z,8.13
2022-11-13T22:32:46.915Z,6.53
2022-11-13T22:38:29.256Z,6.27
2022-11-13T22:44:14.057Z,7.50
2022-11-13T22:49:58.297Z,6.20
2022-11-13T22:55:39.907Z,7.40
2022-11-13T23:01:23.205Z,7.20
2022-11-13T23:07:06.287Z,8.37
2022-11-13T23:12:48.110Z,6.83
2022-11-13T23:18:31.579Z,7.93
2022-11-13T23:24:15.273Z,8.00
2022-11-13T23:29:57.166Z,8.57
2022-11-13T23:35:38.893Z,7.40
2022-11-13T23:41:22.017Z,8.57
2022-11-13T23:47:03.786Z,8.53
2022-11-13T23:52:45.662Z,9.43
2022-11-13T23:58:29.317Z,8.57
